sensor_id;sensor_type;location;lat;lon;timestamp;temperature;humidity
20777;DHT22;10548;47.504;8.248;2023-05-10T00:01:09;13.30;99.90
20777;DHT22;10548;47.504;8.248;2023-05-10T00:03:37;13.30;99.90
20777;DHT22;10548;47.504;8.248;2023-05-10T00:06:04;13.20;99.90
20777;DHT22;10548;47.504;8.248;2023-05-10T00:08:32;13.20;99.90
20777;DHT22;10548;47.504;8.248;2023-05-10T00:10:59;13.20;99.90
20777;DHT22;10548;47.504;8.248;2023-05-10T00:13:26;13.20;99.90
20777;DHT22;10548;47.504;8.248;2023-05-10T00:15:53;13.10;99.90
20777;DHT22;10548;47.504;8.248;2023-05-10T00:18:20;13.10;99.90
20777;DHT22;10548;47.504;8.248;2023-05-10T00:20:47;13.10;99.90
20777;DHT22;10548;47.504;8.248;2023-05-10T00:23:15;13.20;99.90
20777;DHT22;10548;47.504;8.248;2023-05-10T00:25:42;13.20;99.90
20777;DHT22;10548;47.504;8.248;2023-05-10T00:28:10;13.20;99.90
20777;DHT22;10548;47.504;8.248;2023-05-10T00:30:37;13.20;99.90
20777;DHT22;10548;47.504;8.248;2023-05-10T00:33:04;13.20;99.90
20777;DHT22;10548;47.504;8.248;2023-05-10T00:35:31;13.10;99.90
20777;DHT22;10548;47.504;8.248;2023-05-10T00:37:59;13.20;99.90
20777;DHT22;10548;47.504;8.248;2023-05-10T00:40:26;13.10;99.90
20777;DHT22;10548;47.504;8.248;2023-05-10T00:42:58;13.10;99.90
20777;DHT22;10548;47.504;8.248;2023-05-10T00:45:27;13.10;99.90
20777;DHT22;10548;47.504;8.248;2023-05-10T00:47:54;13.10;99.90
20777;DHT22;10548;47.504;8.248;2023-05-10T00:50:23;13.00;99.90
20777;DHT22;10548;47.504;8.248;2023-05-10T00:52:50;13.10;99.90
20777;DHT22;10548;47.504;8.248;2023-05-10T00:55:18;13.00;99.90
20777;DHT22;10548;47.504;8.248;2023-05-10T00:57:45;13.00;99.90
20777;DHT22;10548;47.504;8.248;2023-05-10T01:00:13;13.00;99.90
20777;DHT22;10548;47.504;8.248;2023-05-10T01:02:45;12.90;99.90
20777;DHT22;10548;47.504;8.248;2023-05-10T01:05:13;13.10;99.90
20777;DHT22;10548;47.504;8.248;2023-05-10T01:07:40;13.00;99.90
20777;DHT22;10548;47.504;8.248;2023-05-10T01:10:09;13.00;99.90
20777;DHT22;10548;47.504;8.248;2023-05-10T01:12:40;13.00;99.90
20777;DHT22;10548;47.504;8.248;2023-05-10T01:15:09;13.10;99.90
20777;DHT22;10548;47.504;8.248;2023-05-10T01:17:39;13.10;99.90
20777;DHT22;10548;47.504;8.248;2023-05-10T01:20:08;13.00;99.90
20777;DHT22;10548;47.504;8.248;2023-05-10T01:23:05;13.00;99.90
20777;DHT22;10548;47.504;8.248;2023-05-10T01:35:55;13.00;99.90
20777;DHT22;10548;47.504;8.248;2023-05-10T01:38:47;13.20;99.90
20777;DHT22;10548;47.504;8.248;2023-05-10T01:41:24;13.20;99.90
20777;DHT22;10548;47.504;8.248;2023-05-10T01:47:20;13.10;99.90
20777;DHT22;10548;47.504;8.248;2023-05-10T01:49:53;13.10;99.90
20777;DHT22;10548;47.504;8.248;2023-05-10T01:52:32;13.20;99.90
20777;DHT22;10548;47.504;8.248;2023-05-10T01:55:02;13.30;99.90
20777;DHT22;10548;47.504;8.248;2023-05-10T01:57:36;13.20;99.90
20777;DHT22;10548;47.504;8.248;2023-05-10T02:00:04;13.10;99.90
20777;DHT22;10548;47.504;8.248;2023-05-10T02:02:46;13.10;99.90
20777;DHT22;10548;47.504;8.248;2023-05-10T02:05:16;13.10;99.90
20777;DHT22;10548;47.504;8.248;2023-05-10T02:07:43;13.10;99.90
20777;DHT22;10548;47.504;8.248;2023-05-10T02:10:11;13.00;99.90
20777;DHT22;10548;47.504;8.248;2023-05-10T02:12:42;13.00;99.90
20777;DHT22;10548;47.504;8.248;2023-05-10T02:15:11;13.10;99.90
20777;DHT22;10548;47.504;8.248;2023-05-10T02:17:40;12.90;99.90
20777;DHT22;10548;47.504;8.248;2023-05-10T02:20:10;12.80;99.90
20777;DHT22;10548;47.504;8.248;2023-05-10T02:22:39;12.80;99.90
20777;DHT22;10548;47.504;8.248;2023-05-10T02:25:08;12.80;99.90
20777;DHT22;10548;47.504;8.248;2023-05-10T02:27:37;12.80;99.90
20777;DHT22;10548;47.504;8.248;2023-05-10T02:30:06;12.80;99.90
20777;DHT22;10548;47.504;8.248;2023-05-10T02:32:34;12.80;99.90
20777;DHT22;10548;47.504;8.248;2023-05-10T02:35:03;12.80;99.90
20777;DHT22;10548;47.504;8.248;2023-05-10T02:37:31;12.80;99.90
20777;DHT22;10548;47.504;8.248;2023-05-10T02:39:59;12.90;99.90
20777;DHT22;10548;47.504;8.248;2023-05-10T02:42:29;12.80;99.90
20777;DHT22;10548;47.504;8.248;2023-05-10T02:45:00;12.80;99.90
20777;DHT22;10548;47.504;8.248;2023-05-10T02:47:29;12.80;99.90
20777;DHT22;10548;47.504;8.248;2023-05-10T02:49:56;12.80;99.90
20777;DHT22;10548;47.504;8.248;2023-05-10T02:52:27;12.90;99.90
20777;DHT22;10548;47.504;8.248;2023-05-10T02:54:56;12.90;99.90
20777;DHT22;10548;47.504;8.248;2023-05-10T02:57:28;12.90;99.90
20777;DHT22;10548;47.504;8.248;2023-05-10T02:59:58;12.90;99.90
20777;DHT22;10548;47.504;8.248;2023-05-10T03:02:27;12.90;99.90
20777;DHT22;10548;47.504;8.248;2023-05-10T03:04:54;12.90;99.90
20777;DHT22;10548;47.504;8.248;2023-05-10T03:07:22;12.90;99.90
20777;DHT22;10548;47.504;8.248;2023-05-10T03:09:50;12.90;99.90
20777;DHT22;10548;47.504;8.248;2023-05-10T03:12:50;12.90;99.90
20777;DHT22;10548;47.504;8.248;2023-05-10T03:15:33;12.80;99.90
20777;DHT22;10548;47.504;8.248;2023-05-10T03:18:15;12.80;99.90
20777;DHT22;10548;47.504;8.248;2023-05-10T03:20:50;12.70;99.90
20777;DHT22;10548;47.504;8.248;2023-05-10T03:23:41;12.70;99.90
20777;DHT22;10548;47.504;8.248;2023-05-10T03:26:11;12.60;99.90
20777;DHT22;10548;47.504;8.248;2023-05-10T03:28:40;12.60;99.90
20777;DHT22;10548;47.504;8.248;2023-05-10T03:31:08;12.60;99.90
20777;DHT22;10548;47.504;8.248;2023-05-10T03:33:51;12.70;99.90
20777;DHT22;10548;47.504;8.248;2023-05-10T03:36:25;12.80;99.90
20777;DHT22;10548;47.504;8.248;2023-05-10T03:38:53;12.80;99.90
20777;DHT22;10548;47.504;8.248;2023-05-10T03:41:20;12.80;99.90
20777;DHT22;10548;47.504;8.248;2023-05-10T03:43:48;12.80;99.90
20777;DHT22;10548;47.504;8.248;2023-05-10T03:46:15;12.80;99.90
20777;DHT22;10548;47.504;8.248;2023-05-10T03:48:42;12.80;99.90
20777;DHT22;10548;47.504;8.248;2023-05-10T03:51:09;12.80;99.90
20777;DHT22;10548;47.504;8.248;2023-05-10T03:53:38;12.80;99.90
20777;DHT22;10548;47.504;8.248;2023-05-10T03:56:06;12.80;99.90
20777;DHT22;10548;47.504;8.248;2023-05-10T03:58:34;12.80;99.90
20777;DHT22;10548;47.504;8.248;2023-05-10T04:01:01;12.90;99.90
20777;DHT22;10548;47.504;8.248;2023-05-10T04:03:29;12.80;99.90
20777;DHT22;10548;47.504;8.248;2023-05-10T04:06:00;12.70;99.90
20777;DHT22;10548;47.504;8.248;2023-05-10T04:08:28;12.80;99.90
20777;DHT22;10548;47.504;8.248;2023-05-10T04:11:10;12.80;99.90
20777;DHT22;10548;47.504;8.248;2023-05-10T04:13:37;12.70;99.90
20777;DHT22;10548;47.504;8.248;2023-05-10T04:16:05;12.80;99.90
20777;DHT22;10548;47.504;8.248;2023-05-10T04:18:32;12.80;99.90
20777;DHT22;10548;47.504;8.248;2023-05-10T04:20:59;12.70;99.90
20777;DHT22;10548;47.504;8.248;2023-05-10T04:23:27;12.70;99.90
20777;DHT22;10548;47.504;8.248;2023-05-10T04:26:01;12.70;99.90
20777;DHT22;10548;47.504;8.248;2023-05-10T04:28:28;12.70;99.90
20777;DHT22;10548;47.504;8.248;2023-05-10T04:31:06;12.70;99.90
20777;DHT22;10548;47.504;8.248;2023-05-10T04:33:34;12.60;99.90
20777;DHT22;10548;47.504;8.248;2023-05-10T04:36:01;12.60;99.90
20777;DHT22;10548;47.504;8.248;2023-05-10T04:38:29;12.50;99.90
20777;DHT22;10548;47.504;8.248;2023-05-10T04:41:09;12.50;99.90
20777;DHT22;10548;47.504;8.248;2023-05-10T04:43:37;12.60;99.90
20777;DHT22;10548;47.504;8.248;2023-05-10T04:46:04;12.60;99.90
20777;DHT22;10548;47.504;8.248;2023-05-10T04:48:32;12.60;99.90
20777;DHT22;10548;47.504;8.248;2023-05-10T04:50:59;12.60;99.90
20777;DHT22;10548;47.504;8.248;2023-05-10T04:53:26;12.60;99.90
20777;DHT22;10548;47.504;8.248;2023-05-10T04:55:54;12.60;99.90
20777;DHT22;10548;47.504;8.248;2023-05-10T04:58:21;12.60;99.90
20777;DHT22;10548;47.504;8.248;2023-05-10T05:00:48;12.60;99.90
20777;DHT22;10548;47.504;8.248;2023-05-10T05:03:15;12.60;99.90
20777;DHT22;10548;47.504;8.248;2023-05-10T05:05:43;12.60;99.90
20777;DHT22;10548;47.504;8.248;2023-05-10T05:08:11;12.60;99.90
20777;DHT22;10548;47.504;8.248;2023-05-10T05:10:38;12.60;99.90
20777;DHT22;10548;47.504;8.248;2023-05-10T05:13:06;12.60;99.90
20777;DHT22;10548;47.504;8.248;2023-05-10T05:15:33;12.60;99.90
20777;DHT22;10548;47.504;8.248;2023-05-10T05:18:00;12.60;99.90
20777;DHT22;10548;47.504;8.248;2023-05-10T05:20:28;12.60;99.90
20777;DHT22;10548;47.504;8.248;2023-05-10T05:22:55;12.50;99.90
20777;DHT22;10548;47.504;8.248;2023-05-10T05:25:22;12.50;99.90
20777;DHT22;10548;47.504;8.248;2023-05-10T05:27:49;12.50;99.90
20777;DHT22;10548;47.504;8.248;2023-05-10T05:30:17;12.60;99.90
20777;DHT22;10548;47.504;8.248;2023-05-10T05:32:44;12.50;99.90
20777;DHT22;10548;47.504;8.248;2023-05-10T05:35:11;12.60;99.90
20777;DHT22;10548;47.504;8.248;2023-05-10T05:37:39;12.60;99.90
20777;DHT22;10548;47.504;8.248;2023-05-10T05:40:07;12.60;99.90
20777;DHT22;10548;47.504;8.248;2023-05-10T05:42:34;12.70;99.90
20777;DHT22;10548;47.504;8.248;2023-05-10T05:45:01;12.70;99.90
20777;DHT22;10548;47.504;8.248;2023-05-10T05:47:28;12.60;99.90
20777;DHT22;10548;47.504;8.248;2023-05-10T05:49:56;12.60;99.90
20777;DHT22;10548;47.504;8.248;2023-05-10T05:52:23;12.60;99.90
20777;DHT22;10548;47.504;8.248;2023-05-10T05:54:50;12.50;99.90
20777;DHT22;10548;47.504;8.248;2023-05-10T05:57:17;12.50;99.90
20777;DHT22;10548;47.504;8.248;2023-05-10T05:59:44;12.40;99.90
20777;DHT22;10548;47.504;8.248;2023-05-10T06:02:12;12.40;99.90
20777;DHT22;10548;47.504;8.248;2023-05-10T06:04:39;12.30;99.90
20777;DHT22;10548;47.504;8.248;2023-05-10T06:07:10;12.30;99.90
20777;DHT22;10548;47.504;8.248;2023-05-10T06:09:38;12.30;99.90
20777;DHT22;10548;47.504;8.248;2023-05-10T06:12:05;12.30;99.90
20777;DHT22;10548;47.504;8.248;2023-05-10T06:14:32;12.20;99.90
20777;DHT22;10548;47.504;8.248;2023-05-10T06:16:59;12.20;99.90
20777;DHT22;10548;47.504;8.248;2023-05-10T06:19:26;12.20;99.90
20777;DHT22;10548;47.504;8.248;2023-05-10T06:21:54;12.20;99.90
20777;DHT22;10548;47.504;8.248;2023-05-10T06:24:21;12.20;99.90
20777;DHT22;10548;47.504;8.248;2023-05-10T06:26:48;12.10;99.90
20777;DHT22;10548;47.504;8.248;2023-05-10T06:29:16;12.00;99.90
20777;DHT22;10548;47.504;8.248;2023-05-10T06:31:44;12.00;99.90
20777;DHT22;10548;47.504;8.248;2023-05-10T06:34:11;12.00;99.90
20777;DHT22;10548;47.504;8.248;2023-05-10T06:36:39;11.90;99.90
20777;DHT22;10548;47.504;8.248;2023-05-10T06:39:06;12.00;99.90
20777;DHT22;10548;47.504;8.248;2023-05-10T06:41:33;12.10;99.90
20777;DHT22;10548;47.504;8.248;2023-05-10T06:44:00;12.20;99.90
20777;DHT22;10548;47.504;8.248;2023-05-10T06:46:28;12.10;99.90
20777;DHT22;10548;47.504;8.248;2023-05-10T06:48:55;12.30;99.90
20777;DHT22;10548;47.504;8.248;2023-05-10T06:51:22;12.40;99.90
20777;DHT22;10548;47.504;8.248;2023-05-10T06:53:49;12.50;99.90
20777;DHT22;10548;47.504;8.248;2023-05-10T06:56:16;12.60;99.90
20777;DHT22;10548;47.504;8.248;2023-05-10T06:58:43;12.70;99.90
20777;DHT22;10548;47.504;8.248;2023-05-10T07:01:10;12.60;99.90
20777;DHT22;10548;47.504;8.248;2023-05-10T07:03:38;12.70;99.90
20777;DHT22;10548;47.504;8.248;2023-05-10T07:06:05;12.80;99.90
20777;DHT22;10548;47.504;8.248;2023-05-10T07:08:44;12.60;99.90
20777;DHT22;10548;47.504;8.248;2023-05-10T07:11:11;12.60;99.90
20777;DHT22;10548;47.504;8.248;2023-05-10T07:13:38;12.70;99.90
20777;DHT22;10548;47.504;8.248;2023-05-10T07:16:08;12.70;99.90
20777;DHT22;10548;47.504;8.248;2023-05-10T07:18:35;12.60;99.90
20777;DHT22;10548;47.504;8.248;2023-05-10T07:21:03;12.70;99.90
20777;DHT22;10548;47.504;8.248;2023-05-10T07:23:30;12.60;99.90
20777;DHT22;10548;47.504;8.248;2023-05-10T16:56:13;15.60;77.80
20777;DHT22;10548;47.504;8.248;2023-05-10T16:58:40;15.50;79.10
20777;DHT22;10548;47.504;8.248;2023-05-10T17:01:08;15.40;79.40
20777;DHT22;10548;47.504;8.248;2023-05-10T17:03:35;15.40;80.10
20777;DHT22;10548;47.504;8.248;2023-05-10T17:06:04;15.20;83.40
20777;DHT22;10548;47.504;8.248;2023-05-10T17:08:32;15.20;83.60
20777;DHT22;10548;47.504;8.248;2023-05-10T17:11:02;15.20;84.90
20777;DHT22;10548;47.504;8.248;2023-05-10T17:13:30;15.20;84.80
20777;DHT22;10548;47.504;8.248;2023-05-10T17:15:59;15.20;90.10
20777;DHT22;10548;47.504;8.248;2023-05-10T17:18:28;14.90;89.20
20777;DHT22;10548;47.504;8.248;2023-05-10T17:20:56;15.10;90.50
20777;DHT22;10548;47.504;8.248;2023-05-10T17:23:23;15.20;90.50
20777;DHT22;10548;47.504;8.248;2023-05-10T17:25:50;15.30;90.10
20777;DHT22;10548;47.504;8.248;2023-05-10T17:28:17;15.40;88.80
20777;DHT22;10548;47.504;8.248;2023-05-10T17:30:44;15.50;89.10
20777;DHT22;10548;47.504;8.248;2023-05-10T17:33:11;15.50;88.80
20777;DHT22;10548;47.504;8.248;2023-05-10T17:35:38;15.70;88.10
20777;DHT22;10548;47.504;8.248;2023-05-10T17:38:06;15.60;85.20
20777;DHT22;10548;47.504;8.248;2023-05-10T17:40:33;15.30;86.70
20777;DHT22;10548;47.504;8.248;2023-05-10T17:43:00;15.10;88.90
20777;DHT22;10548;47.504;8.248;2023-05-10T17:45:27;15.20;89.40
20777;DHT22;10548;47.504;8.248;2023-05-10T17:47:54;15.20;88.80
20777;DHT22;10548;47.504;8.248;2023-05-10T17:50:22;15.20;90.00
20777;DHT22;10548;47.504;8.248;2023-05-10T17:52:49;15.30;89.60
20777;DHT22;10548;47.504;8.248;2023-05-10T17:55:16;15.30;90.10
20777;DHT22;10548;47.504;8.248;2023-05-10T17:57:44;15.30;90.20
20777;DHT22;10548;47.504;8.248;2023-05-10T18:00:12;15.30;90.00
20777;DHT22;10548;47.504;8.248;2023-05-10T18:02:40;15.10;90.50
20777;DHT22;10548;47.504;8.248;2023-05-10T18:05:07;14.90;90.10
20777;DHT22;10548;47.504;8.248;2023-05-10T18:07:35;14.80;89.40
20777;DHT22;10548;47.504;8.248;2023-05-10T18:10:02;14.80;90.80
20777;DHT22;10548;47.504;8.248;2023-05-10T18:12:29;14.80;89.60
20777;DHT22;10548;47.504;8.248;2023-05-10T18:14:57;14.60;88.50
20777;DHT22;10548;47.504;8.248;2023-05-10T18:17:24;14.40;89.40
20777;DHT22;10548;47.504;8.248;2023-05-10T18:19:51;14.30;90.50
20777;DHT22;10548;47.504;8.248;2023-05-10T18:22:18;14.30;90.70
20777;DHT22;10548;47.504;8.248;2023-05-10T18:24:45;14.10;92.80
20777;DHT22;10548;47.504;8.248;2023-05-10T18:27:12;14.00;92.70
20777;DHT22;10548;47.504;8.248;2023-05-10T18:29:40;14.00;93.50
20777;DHT22;10548;47.504;8.248;2023-05-10T18:32:07;13.90;94.10
20777;DHT22;10548;47.504;8.248;2023-05-10T18:34:34;13.90;93.90
20777;DHT22;10548;47.504;8.248;2023-05-10T18:37:02;13.80;94.10
20777;DHT22;10548;47.504;8.248;2023-05-10T18:39:35;13.70;94.70
20777;DHT22;10548;47.504;8.248;2023-05-10T18:42:05;13.70;95.80
20777;DHT22;10548;47.504;8.248;2023-05-10T18:44:33;13.70;95.70
20777;DHT22;10548;47.504;8.248;2023-05-10T18:47:00;13.60;95.80
20777;DHT22;10548;47.504;8.248;2023-05-10T18:49:27;13.50;96.80
20777;DHT22;10548;47.504;8.248;2023-05-10T18:51:55;13.50;97.50
20777;DHT22;10548;47.504;8.248;2023-05-10T18:54:22;13.40;96.80
20777;DHT22;10548;47.504;8.248;2023-05-10T18:56:49;13.30;98.40
20777;DHT22;10548;47.504;8.248;2023-05-10T18:59:16;13.30;97.80
20777;DHT22;10548;47.504;8.248;2023-05-10T19:01:43;13.40;98.20
20777;DHT22;10548;47.504;8.248;2023-05-10T19:04:11;13.30;97.90
20777;DHT22;10548;47.504;8.248;2023-05-10T19:06:38;13.30;98.10
20777;DHT22;10548;47.504;8.248;2023-05-10T19:09:06;13.30;97.50
20777;DHT22;10548;47.504;8.248;2023-05-10T19:11:34;13.30;98.50
20777;DHT22;10548;47.504;8.248;2023-05-10T19:14:01;13.20;97.60
20777;DHT22;10548;47.504;8.248;2023-05-10T19:16:29;13.30;98.80
20777;DHT22;10548;47.504;8.248;2023-05-10T19:18:57;13.10;99.50
20777;DHT22;10548;47.504;8.248;2023-05-10T19:21:26;13.10;99.50
20777;DHT22;10548;47.504;8.248;2023-05-10T19:23:53;13.00;99.90
20777;DHT22;10548;47.504;8.248;2023-05-10T19:26:23;13.00;99.50
20777;DHT22;10548;47.504;8.248;2023-05-10T19:28:51;13.00;99.20
20777;DHT22;10548;47.504;8.248;2023-05-10T19:31:20;12.90;99.90
20777;DHT22;10548;47.504;8.248;2023-05-10T19:33:48;12.90;99.90
20777;DHT22;10548;47.504;8.248;2023-05-10T19:36:16;12.90;99.90
20777;DHT22;10548;47.504;8.248;2023-05-10T19:38:44;12.90;99.90
20777;DHT22;10548;47.504;8.248;2023-05-10T19:41:13;12.90;99.90
20777;DHT22;10548;47.504;8.248;2023-05-10T19:43:40;12.70;99.90
20777;DHT22;10548;47.504;8.248;2023-05-10T19:46:08;12.80;99.90
20777;DHT22;10548;47.504;8.248;2023-05-10T19:48:36;12.90;99.90
20777;DHT22;10548;47.504;8.248;2023-05-10T19:51:05;12.90;99.90
20777;DHT22;10548;47.504;8.248;2023-05-10T19:53:36;12.90;99.90
20777;DHT22;10548;47.504;8.248;2023-05-10T19:56:04;12.80;99.90
20777;DHT22;10548;47.504;8.248;2023-05-10T19:58:33;12.80;99.90
20777;DHT22;10548;47.504;8.248;2023-05-10T20:01:00;12.90;99.90
20777;DHT22;10548;47.504;8.248;2023-05-10T20:03:27;12.80;99.90
20777;DHT22;10548;47.504;8.248;2023-05-10T20:05:55;12.70;99.90
20777;DHT22;10548;47.504;8.248;2023-05-10T20:08:22;12.60;99.90
20777;DHT22;10548;47.504;8.248;2023-05-10T20:10:49;12.70;99.90
20777;DHT22;10548;47.504;8.248;2023-05-10T20:13:16;12.70;99.90
20777;DHT22;10548;47.504;8.248;2023-05-10T20:15:45;12.60;99.90
20777;DHT22;10548;47.504;8.248;2023-05-10T20:18:12;12.70;99.90
20777;DHT22;10548;47.504;8.248;2023-05-10T20:20:39;12.70;99.90
20777;DHT22;10548;47.504;8.248;2023-05-10T20:23:07;12.70;99.90
20777;DHT22;10548;47.504;8.248;2023-05-10T20:25:34;12.70;99.90
20777;DHT22;10548;47.504;8.248;2023-05-10T20:28:01;12.70;99.90
20777;DHT22;10548;47.504;8.248;2023-05-10T20:30:29;12.70;99.90
20777;DHT22;10548;47.504;8.248;2023-05-10T20:32:56;12.70;99.90
20777;DHT22;10548;47.504;8.248;2023-05-10T20:35:24;12.70;99.90
20777;DHT22;10548;47.504;8.248;2023-05-10T20:37:51;12.60;99.90
20777;DHT22;10548;47.504;8.248;2023-05-10T20:40:18;12.50;99.90
20777;DHT22;10548;47.504;8.248;2023-05-10T20:42:45;12.50;99.90
20777;DHT22;10548;47.504;8.248;2023-05-10T20:45:14;12.40;99.90
20777;DHT22;10548;47.504;8.248;2023-05-10T20:47:41;12.40;99.90
20777;DHT22;10548;47.504;8.248;2023-05-10T20:50:08;12.50;99.90
20777;DHT22;10548;47.504;8.248;2023-05-10T20:52:35;12.50;99.90
20777;DHT22;10548;47.504;8.248;2023-05-10T20:55:03;12.60;99.90
20777;DHT22;10548;47.504;8.248;2023-05-10T20:57:30;12.60;99.90
20777;DHT22;10548;47.504;8.248;2023-05-10T20:59:57;12.60;99.90
20777;DHT22;10548;47.504;8.248;2023-05-10T21:02:24;12.60;99.90
20777;DHT22;10548;47.504;8.248;2023-05-10T21:04:52;12.60;99.90
20777;DHT22;10548;47.504;8.248;2023-05-10T21:07:22;12.60;99.90
20777;DHT22;10548;47.504;8.248;2023-05-10T21:09:49;12.50;99.90
20777;DHT22;10548;47.504;8.248;2023-05-10T21:12:16;12.50;99.90
20777;DHT22;10548;47.504;8.248;2023-05-10T21:14:43;12.40;99.90
20777;DHT22;10548;47.504;8.248;2023-05-10T21:17:13;12.40;99.90
20777;DHT22;10548;47.504;8.248;2023-05-10T21:19:40;12.50;99.90
20777;DHT22;10548;47.504;8.248;2023-05-10T21:22:07;12.50;99.90
20777;DHT22;10548;47.504;8.248;2023-05-10T21:24:34;12.50;99.90
20777;DHT22;10548;47.504;8.248;2023-05-10T21:27:01;12.30;99.90
20777;DHT22;10548;47.504;8.248;2023-05-10T21:29:29;12.30;99.90
20777;DHT22;10548;47.504;8.248;2023-05-10T21:31:56;12.30;99.90
20777;DHT22;10548;47.504;8.248;2023-05-10T21:34:23;12.20;99.90
20777;DHT22;10548;47.504;8.248;2023-05-10T21:36:51;12.20;99.90
20777;DHT22;10548;47.504;8.248;2023-05-10T21:39:18;12.30;99.90
20777;DHT22;10548;47.504;8.248;2023-05-10T21:41:45;12.20;99.90
20777;DHT22;10548;47.504;8.248;2023-05-10T21:44:12;12.20;99.90
20777;DHT22;10548;47.504;8.248;2023-05-10T21:46:39;12.20;99.90
20777;DHT22;10548;47.504;8.248;2023-05-10T21:49:06;12.10;99.90
20777;DHT22;10548;47.504;8.248;2023-05-10T21:51:34;12.20;99.90
20777;DHT22;10548;47.504;8.248;2023-05-10T21:54:01;12.10;99.90
20777;DHT22;10548;47.504;8.248;2023-05-10T21:56:28;12.10;99.90
20777;DHT22;10548;47.504;8.248;2023-05-10T21:58:55;12.10;99.90
20777;DHT22;10548;47.504;8.248;2023-05-10T22:01:23;12.00;99.90
20777;DHT22;10548;47.504;8.248;2023-05-10T22:03:50;12.00;99.90
20777;DHT22;10548;47.504;8.248;2023-05-10T22:06:17;11.90;99.90
20777;DHT22;10548;47.504;8.248;2023-05-10T22:08:44;12.00;99.90
20777;DHT22;10548;47.504;8.248;2023-05-10T22:11:11;12.00;99.90
20777;DHT22;10548;47.504;8.248;2023-05-10T22:13:38;12.00;99.90
20777;DHT22;10548;47.504;8.248;2023-05-10T22:16:06;11.90;99.90
20777;DHT22;10548;47.504;8.248;2023-05-10T22:18:33;11.90;99.90
20777;DHT22;10548;47.504;8.248;2023-05-10T22:21:00;11.90;99.90
20777;DHT22;10548;47.504;8.248;2023-05-10T22:23:27;11.80;99.90
20777;DHT22;10548;47.504;8.248;2023-05-10T22:25:59;11.80;99.90
20777;DHT22;10548;47.504;8.248;2023-05-10T22:28:26;11.80;99.90
20777;DHT22;10548;47.504;8.248;2023-05-10T22:30:54;11.70;99.90
20777;DHT22;10548;47.504;8.248;2023-05-10T22:33:21;11.70;99.90
20777;DHT22;10548;47.504;8.248;2023-05-10T22:35:48;11.70;99.90
20777;DHT22;10548;47.504;8.248;2023-05-10T22:38:15;11.60;99.90
20777;DHT22;10548;47.504;8.248;2023-05-10T22:40:42;11.60;99.90
20777;DHT22;10548;47.504;8.248;2023-05-10T22:43:10;11.60;99.90
20777;DHT22;10548;47.504;8.248;2023-05-10T22:45:37;11.60;99.90
20777;DHT22;10548;47.504;8.248;2023-05-10T22:48:05;11.60;99.90
20777;DHT22;10548;47.504;8.248;2023-05-10T22:50:34;11.60;99.90
20777;DHT22;10548;47.504;8.248;2023-05-10T22:53:02;11.50;99.90
20777;DHT22;10548;47.504;8.248;2023-05-10T22:55:30;11.60;99.90
20777;DHT22;10548;47.504;8.248;2023-05-10T22:57:57;11.50;99.90
20777;DHT22;10548;47.504;8.248;2023-05-10T23:00:24;11.60;99.90
20777;DHT22;10548;47.504;8.248;2023-05-10T23:02:52;11.60;99.90
20777;DHT22;10548;47.504;8.248;2023-05-10T23:05:20;11.60;99.90
20777;DHT22;10548;47.504;8.248;2023-05-10T23:07:47;11.50;99.90
20777;DHT22;10548;47.504;8.248;2023-05-10T23:10:19;11.50;99.90
20777;DHT22;10548;47.504;8.248;2023-05-10T23:12:46;11.50;99.90
20777;DHT22;10548;47.504;8.248;2023-05-10T23:15:14;11.60;99.90
20777;DHT22;10548;47.504;8.248;2023-05-10T23:17:41;11.60;99.90
20777;DHT22;10548;47.504;8.248;2023-05-10T23:20:09;11.60;99.90
20777;DHT22;10548;47.504;8.248;2023-05-10T23:22:36;11.50;99.90
20777;DHT22;10548;47.504;8.248;2023-05-10T23:25:04;11.50;99.90
20777;DHT22;10548;47.504;8.248;2023-05-10T23:27:31;11.60;99.90
20777;DHT22;10548;47.504;8.248;2023-05-10T23:29:58;11.50;99.90
20777;DHT22;10548;47.504;8.248;2023-05-10T23:32:25;11.50;99.90
20777;DHT22;10548;47.504;8.248;2023-05-10T23:34:53;11.60;99.90
20777;DHT22;10548;47.504;8.248;2023-05-10T23:37:20;11.60;99.90
20777;DHT22;10548;47.504;8.248;2023-05-10T23:39:47;11.60;99.90
20777;DHT22;10548;47.504;8.248;2023-05-10T23:42:14;11.60;99.90
20777;DHT22;10548;47.504;8.248;2023-05-10T23:44:41;11.60;99.90
20777;DHT22;10548;47.504;8.248;2023-05-10T23:47:08;11.70;99.90
20777;DHT22;10548;47.504;8.248;2023-05-10T23:49:36;11.60;99.90
20777;DHT22;10548;47.504;8.248;2023-05-10T23:52:03;11.60;99.90
20777;DHT22;10548;47.504;8.248;2023-05-10T23:54:31;11.60;99.90
20777;DHT22;10548;47.504;8.248;2023-05-10T23:56:58;11.50;99.90
20777;DHT22;10548;47.504;8.248;2023-05-10T23:59:25;11.50;99.90
